createdAt,value
2023-04-02T00:01:23.936Z,87.59
2023-04-02T00:03:50.385Z,88.16
2023-04-02T00:06:25.961Z,87.86
2023-04-02T00:08:52.427Z,87.68
2023-04-02T00:11:25.494Z,88.44
2023-04-02T00:13:52.016Z,88.56
2023-04-02T00:16:19.943Z,88.72
2023-04-02T00:18:46.957Z,89.11
2023-04-02T00:21:13.350Z,88.82
2023-04-02T00:23:40.412Z,88.28
2023-04-02T00:26:19.654Z,88.83
2023-04-02T00:28:46.200Z,89.09
2023-04-02T00:31:12.645Z,89.68
2023-04-02T00:33:39.102Z,90.27
2023-04-02T00:36:06.018Z,91.05
2023-04-02T00:38:32.858Z,91.17
2023-04-02T00:41:00.436Z,91.51
2023-04-02T00:43:27.603Z,90.43
2023-04-02T00:45:54.957Z,90.83
2023-04-02T00:48:24.588Z,91.63
2023-04-02T00:50:51.031Z,90.89
2023-04-02T00:53:20.998Z,90.87
2023-04-02T00:55:47.519Z,90.80
2023-04-02T00:58:16.877Z,91.25
2023-04-02T01:00:43.289Z,90.91
2023-04-02T01:03:16.119Z,91.67
2023-04-02T01:05:46.107Z,91.04
2023-04-02T01:08:32.830Z,91.49
2023-04-02T01:10:59.293Z,91.54
2023-04-02T01:13:25.705Z,91.12
2023-04-02T01:16:31.018Z,91.22
2023-04-02T01:19:01.187Z,91.72
2023-04-02T01:21:57.014Z,91.55
2023-04-02T01:24:23.756Z,91.35
2023-04-02T01:26:50.184Z,91.72
2023-04-02T01:29:17.590Z,91.23
2023-04-02T01:31:44.526Z,90.15
2023-04-02T01:34:12.026Z,91.43
2023-04-02T01:36:38.417Z,91.27
2023-04-02T01:39:15.678Z,90.80
2023-04-02T01:41:47.894Z,91.04
2023-04-02T01:44:15.756Z,91.65
2023-04-02T01:46:42.394Z,90.79
2023-04-02T01:49:12.845Z,91.14
2023-04-02T01:51:40.847Z,90.78
2023-04-02T01:54:07.304Z,90.90
2023-04-02T01:56:33.778Z,90.64
2023-04-02T01:59:00.240Z,90.13
2023-04-02T02:01:36.705Z,90.07
2023-04-02T02:04:03.245Z,90.15
2023-04-02T02:06:29.685Z,90.40
2023-04-02T02:09:02.730Z,90.36
2023-04-02T02:11:29.538Z,90.73
2023-04-02T02:13:56.908Z,90.33
2023-04-02T02:16:23.482Z,90.95
2023-04-02T02:18:51.191Z,90.19
2023-04-02T02:21:36.508Z,90.83
2023-04-02T02:24:03.046Z,90.18
2023-04-02T02:26:29.508Z,90.35
2023-04-02T02:28:56.136Z,91.18
2023-04-02T02:31:23.539Z,90.71
2023-04-02T02:33:50.353Z,90.07
2023-04-02T02:36:19.757Z,90.34
2023-04-02T02:38:54.541Z,90.29
2023-04-02T02:41:24.385Z,89.91
2023-04-02T02:44:01.621Z,90.01
2023-04-02T02:46:28.381Z,89.87
2023-04-02T02:48:55.065Z,90.60
2023-04-02T02:51:23.807Z,90.63
2023-04-02T02:53:50.972Z,90.04
2023-04-02T02:56:17.439Z,90.33
2023-04-02T02:58:43.799Z,89.28
2023-04-02T03:01:10.432Z,89.78
2023-04-02T03:03:37.012Z,90.36
2023-04-02T03:06:04.489Z,89.76
2023-04-02T03:08:36.995Z,90.33
2023-04-02T03:11:05.377Z,90.44
2023-04-02T03:13:32.820Z,89.98
2023-04-02T03:16:18.952Z,90.21
2023-04-02T03:18:59.596Z,90.09
2023-04-02T03:21:36.953Z,90.32
2023-04-02T03:24:03.368Z,90.69
2023-04-02T03:26:29.820Z,91.56
2023-04-02T03:29:00.764Z,90.92
2023-04-02T03:31:28.184Z,90.93
2023-04-02T03:33:55.738Z,90.03
2023-04-02T03:36:32.183Z,91.57
2023-04-02T03:39:10.752Z,90.72
2023-04-02T03:41:51.167Z,90.79
2023-04-02T03:44:21.987Z,91.61
2023-04-02T03:46:52.842Z,91.43
2023-04-02T03:49:20.334Z,92.55
2023-04-02T03:51:52.450Z,93.29
2023-04-02T03:54:18.896Z,93.50
2023-04-02T03:56:45.497Z,92.92
2023-04-02T03:59:15.028Z,93.00
2023-04-02T04:01:55.292Z,93.69
2023-04-02T04:04:21.984Z,93.60
2023-04-02T04:06:49.455Z,92.63
2023-04-02T04:09:27.137Z,94.02
2023-04-02T04:11:55.027Z,92.59
2023-04-02T04:14:28.146Z,92.99
2023-04-02T04:16:58.638Z,92.06
2023-04-02T04:19:28.090Z,93.17
2023-04-02T04:21:54.501Z,92.64
2023-04-02T04:24:22.824Z,92.16
2023-04-02T04:26:56.911Z,93.15
2023-04-02T04:29:29.576Z,93.18
2023-04-02T04:31:56.247Z,94.16
2023-04-02T04:34:37.556Z,92.66
2023-04-02T04:37:04.113Z,93.80
2023-04-02T04:39:33.751Z,92.65
2023-04-02T04:42:00.683Z,93.56
2023-04-02T04:44:36.258Z,93.73
2023-04-02T04:47:03.790Z,93.37
2023-04-02T04:49:38.941Z,93.65
2023-04-02T04:52:16.841Z,93.45
2023-04-02T04:54:43.330Z,94.55
2023-04-02T04:57:19.498Z,95.07
2023-04-02T04:59:47.921Z,96.90
2023-04-02T05:02:16.563Z,97.20
2023-04-02T05:04:43.321Z,97.45
2023-04-02T05:07:12.872Z,97.04
2023-04-02T05:09:42.941Z,98.43
2023-04-02T05:12:18.608Z,98.50
2023-04-02T05:14:52.272Z,97.76
2023-04-02T05:17:23.947Z,99.13
2023-04-02T05:19:59.092Z,99.27
2023-04-02T05:22:28.167Z,99.39
2023-04-02T05:24:57.439Z,98.42
2023-04-02T05:27:26.553Z,99.36
2023-04-02T05:29:55.881Z,100.00
2023-04-02T05:32:24.521Z,99.55
2023-04-02T05:34:51.618Z,99.59
2023-04-02T05:37:19.141Z,99.24
2023-04-02T05:39:45.837Z,100.00
2023-04-02T05:42:20.289Z,100.00
2023-04-02T05:45:09.943Z,99.43
2023-04-02T05:47:36.479Z,100.00
2023-04-02T05:50:08.991Z,100.00
2023-04-02T05:52:40.106Z,100.00
2023-04-02T05:55:12.688Z,99.42
2023-04-02T05:57:44.829Z,99.29
2023-04-02T06:00:18.245Z,99.78
2023-04-02T06:02:45.117Z,99.85
2023-04-02T06:05:11.811Z,99.24
2023-04-02T06:07:42.946Z,99.25
2023-04-02T06:10:18.657Z,100.00
2023-04-02T06:12:58.034Z,99.90
2023-04-02T06:15:24.560Z,100.00
2023-04-02T06:17:51.790Z,99.49
2023-04-02T06:20:18.886Z,100.00
2023-04-02T06:22:45.595Z,100.00
2023-04-02T06:25:15.549Z,99.72
2023-04-02T06:27:42.063Z,100.00
2023-04-02T06:30:10.248Z,99.81
2023-04-02T06:32:36.709Z,100.00
2023-04-02T06:35:03.238Z,100.00
2023-04-02T06:37:36.520Z,99.71
2023-04-02T06:40:03.730Z,100.00
2023-04-02T06:42:39.446Z,100.00
2023-04-02T06:45:06.130Z,99.61
2023-04-02T06:47:36.364Z,99.78
2023-04-02T06:50:02.872Z,100.00
2023-04-02T06:52:31.601Z,100.00
2023-04-02T06:54:58.872Z,100.00
2023-04-02T06:57:25.399Z,100.00
2023-04-02T06:59:51.923Z,99.47
2023-04-02T07:02:22.479Z,100.00
2023-04-02T07:04:48.919Z,100.00
2023-04-02T07:07:15.415Z,99.78
2023-04-02T07:09:41.802Z,99.62
2023-04-02T07:12:12.187Z,99.41
2023-04-02T07:14:38.643Z,98.81
2023-04-02T07:17:05.110Z,99.88
2023-04-02T07:19:31.648Z,100.00
2023-04-02T07:21:58.082Z,99.84
2023-04-02T07:24:24.644Z,99.27
2023-04-02T07:26:51.049Z,98.71
2023-04-02T07:29:17.448Z,99.36
2023-04-02T07:31:44.003Z,100.00
2023-04-02T07:34:10.470Z,99.25
2023-04-02T07:36:37.505Z,99.16
2023-04-02T07:39:04.072Z,98.94
2023-04-02T07:41:30.498Z,98.69
2023-04-02T07:43:57.064Z,99.82
2023-04-02T07:46:23.584Z,99.65
2023-04-02T07:48:50.162Z,99.25
2023-04-02T07:51:17.694Z,98.90
2023-04-02T07:53:44.126Z,100.00
2023-04-02T07:56:13.659Z,99.94
2023-04-02T07:58:40.116Z,99.38
2023-04-02T08:01:11.988Z,99.89
2023-04-02T08:03:38.587Z,99.42
2023-04-02T08:06:05.204Z,100.00
2023-04-02T08:08:31.614Z,100.00
2023-04-02T08:10:58.090Z,99.04
2023-04-02T08:13:24.566Z,99.24
2023-04-02T08:15:51.044Z,100.00
2023-04-02T08:18:17.468Z,100.00
2023-04-02T08:20:43.884Z,99.16
2023-04-02T08:23:13.958Z,99.45
2023-04-02T08:25:40.381Z,99.56
2023-04-02T08:28:06.859Z,99.71
2023-04-02T08:30:34.213Z,99.69
2023-04-02T08:33:01.025Z,99.31
2023-04-02T08:35:27.808Z,98.60
2023-04-02T08:37:54.270Z,98.21
2023-04-02T08:40:22.775Z,98.62
2023-04-02T08:43:03.343Z,98.32
2023-04-02T08:45:47.126Z,98.47
2023-04-02T08:48:13.605Z,98.85
2023-04-02T08:50:43.376Z,98.15
2023-04-02T08:53:12.525Z,98.79
2023-04-02T08:55:40.921Z,98.49
2023-04-02T08:58:29.326Z,97.35
2023-04-02T09:00:55.964Z,97.04
2023-04-02T09:03:29.676Z,98.37
2023-04-02T09:05:56.152Z,97.40
2023-04-02T09:08:23.173Z,97.90
2023-04-02T09:11:19.224Z,98.11
2023-04-02T09:13:46.448Z,97.37
2023-04-02T09:16:13.897Z,96.78
2023-04-02T09:18:40.468Z,97.81
2023-04-02T09:21:21.939Z,96.93
2023-04-02T09:23:48.645Z,97.31
2023-04-02T09:26:25.316Z,97.31
2023-04-02T09:28:51.883Z,98.65
2023-04-02T09:31:26.912Z,96.68
2023-04-02T09:33:53.431Z,97.39
2023-04-02T09:36:40.146Z,96.78
2023-04-02T09:39:15.202Z,96.20
2023-04-02T09:41:41.759Z,96.33
2023-04-02T09:44:21.587Z,97.19
2023-04-02T09:46:58.456Z,97.49
2023-04-02T09:49:28.589Z,97.65
2023-04-02T09:52:08.536Z,98.28
2023-04-02T09:54:35.106Z,98.85
2023-04-02T09:57:02.435Z,98.72
2023-04-02T09:59:28.950Z,98.09
2023-04-02T10:01:55.808Z,97.93
2023-04-02T10:04:41.804Z,98.30
2023-04-02T10:07:11.181Z,97.60
2023-04-02T10:09:37.693Z,95.96
2023-04-02T10:12:08.331Z,97.50
2023-04-02T10:14:38.817Z,97.07
2023-04-02T10:17:07.894Z,97.83
2023-04-02T10:19:34.975Z,96.48
2023-04-02T10:22:03.440Z,96.13
2023-04-02T10:24:29.943Z,95.21
2023-04-02T10:26:59.476Z,95.42
2023-04-02T10:29:44.160Z,95.13
2023-04-02T10:32:12.108Z,95.89
2023-04-02T10:34:43.537Z,96.87
2023-04-02T10:37:36.163Z,97.75
2023-04-02T10:40:21.286Z,96.74
2023-04-02T10:42:59.987Z,96.69
2023-04-02T10:45:33.971Z,96.89
2023-04-02T10:48:03.155Z,96.64
2023-04-02T10:50:39.826Z,96.30
2023-04-02T10:53:10.108Z,95.79
2023-04-02T10:55:37.352Z,95.88
2023-04-02T10:58:05.897Z,96.35
2023-04-02T11:00:33.790Z,97.36
2023-04-02T11:03:21.091Z,97.37
2023-04-02T11:05:48.267Z,96.95
2023-04-02T11:08:20.772Z,97.16
2023-04-02T11:10:55.480Z,96.93
2023-04-02T11:13:28.882Z,96.58
2023-04-02T11:15:55.357Z,96.48
2023-04-02T11:18:22.758Z,95.03
2023-04-02T11:20:59.409Z,94.71
2023-04-02T11:23:29.907Z,95.89
2023-04-02T11:26:15.378Z,97.67
2023-04-02T11:28:41.844Z,98.02
2023-04-02T11:31:08.425Z,98.25
2023-04-02T11:33:39.246Z,97.10
2023-04-02T11:36:25.011Z,98.57
2023-04-02T11:38:52.448Z,98.05
2023-04-02T11:41:57.589Z,97.15
2023-04-02T11:44:24.245Z,95.29
2023-04-02T11:46:50.660Z,93.24
2023-04-02T11:49:33.133Z,92.85
2023-04-02T11:52:10.885Z,92.81
2023-04-02T11:54:38.515Z,93.86
2023-04-02T11:57:19.635Z,94.23
2023-04-02T12:00:05.827Z,93.07
2023-04-02T12:02:37.192Z,93.76
2023-04-02T12:05:03.802Z,93.76
2023-04-02T12:07:30.333Z,93.99
2023-04-02T12:09:57.673Z,94.96
2023-04-02T12:12:24.065Z,95.40
2023-04-02T12:14:53.985Z,93.11
2023-04-02T12:17:23.461Z,93.74
2023-04-02T12:19:50.504Z,92.80
2023-04-02T12:22:18.825Z,92.26
2023-04-02T12:24:45.824Z,92.13
2023-04-02T12:27:19.588Z,91.02
2023-04-02T12:29:46.042Z,92.06
2023-04-02T12:32:32.775Z,91.06
2023-04-02T12:35:02.988Z,91.10
2023-04-02T12:37:29.559Z,89.90
2023-04-02T12:39:59.780Z,90.98
2023-04-02T12:42:30.727Z,93.44
2023-04-02T12:44:57.166Z,92.90
2023-04-02T12:47:23.784Z,90.42
2023-04-02T12:49:50.296Z,90.12
2023-04-02T12:52:18.095Z,88.00
2023-04-02T12:54:45.593Z,89.05
2023-04-02T12:57:22.257Z,89.71
2023-04-02T12:59:49.003Z,87.92
2023-04-02T13:02:21.376Z,89.28
2023-04-02T13:04:51.336Z,87.71
2023-04-02T13:07:18.178Z,87.36
2023-04-02T13:09:45.743Z,86.04
2023-04-02T13:12:31.321Z,87.17
2023-04-02T13:14:58.061Z,86.98
2023-04-02T13:17:36.608Z,88.29
2023-04-02T13:20:21.660Z,87.61
2023-04-02T13:22:48.166Z,89.11
2023-04-02T13:25:14.731Z,88.81
2023-04-02T13:27:41.388Z,89.53
2023-04-02T13:30:09.026Z,88.25
2023-04-02T13:32:35.493Z,88.39
2023-04-02T13:35:02.014Z,87.24
2023-04-02T13:37:28.601Z,88.47
2023-04-02T13:39:55.181Z,88.15
2023-04-02T13:42:21.708Z,88.29
2023-04-02T13:44:48.285Z,87.18
2023-04-02T13:47:14.726Z,88.94
2023-04-02T13:49:41.120Z,90.36
2023-04-02T13:52:09.906Z,89.16
2023-04-02T13:54:55.488Z,88.33
2023-04-02T13:57:22.068Z,88.05
2023-04-02T13:59:48.554Z,88.79
2023-04-02T14:02:18.787Z,88.39
2023-04-02T14:04:50.523Z,88.05
2023-04-02T14:07:20.162Z,87.34
2023-04-02T14:09:49.645Z,87.34
2023-04-02T14:12:34.953Z,88.55
2023-04-02T14:15:17.069Z,87.16
2023-04-02T14:17:53.428Z,87.26
2023-04-02T14:20:38.975Z,89.48
2023-04-02T14:23:18.348Z,88.01
2023-04-02T14:25:50.690Z,88.76
2023-04-02T14:28:20.220Z,89.48
2023-04-02T14:30:52.503Z,88.48
2023-04-02T14:33:40.684Z,89.29
2023-04-02T14:36:27.824Z,90.09
2023-04-02T14:39:03.546Z,90.85
2023-04-02T14:41:38.987Z,90.98
2023-04-02T14:44:05.743Z,91.35
2023-04-02T14:46:32.788Z,90.96
2023-04-02T14:49:01.624Z,90.64
2023-04-02T14:51:35.693Z,91.41
2023-04-02T14:54:21.057Z,90.54
2023-04-02T14:56:49.218Z,90.70
2023-04-02T14:59:34.915Z,90.82
2023-04-02T15:02:04.644Z,90.47
2023-04-02T15:04:32.898Z,89.86
2023-04-02T15:07:01.892Z,88.37
2023-04-02T15:09:29.355Z,88.76
2023-04-02T15:11:57.226Z,89.50
2023-04-02T15:14:24.161Z,89.54
2023-04-02T15:16:50.564Z,90.67
2023-04-02T15:19:17.328Z,89.76
2023-04-02T15:21:57.115Z,90.21
2023-04-02T15:24:26.122Z,90.14
2023-04-02T15:27:07.194Z,89.93
2023-04-02T15:29:54.849Z,89.60
2023-04-02T15:32:33.654Z,90.37
2023-04-02T15:35:09.456Z,88.98
2023-04-02T15:37:39.630Z,88.65
2023-04-02T15:40:24.847Z,88.33
2023-04-02T15:43:11.593Z,88.22
2023-04-02T15:45:44.343Z,87.46
2023-04-02T15:48:28.992Z,88.44
2023-04-02T15:51:14.141Z,88.46
2023-04-02T15:53:46.839Z,85.66
2023-04-02T15:56:16.286Z,87.37
2023-04-02T15:58:51.481Z,86.39
2023-04-02T16:01:22.726Z,85.65
2023-04-02T16:04:01.531Z,85.76
2023-04-02T16:06:38.029Z,85.62
2023-04-02T16:09:33.957Z,84.03
2023-04-02T16:12:11.789Z,83.14
2023-04-02T16:14:38.410Z,83.01
2023-04-02T16:17:11.185Z,83.01
2023-04-02T16:19:45.290Z,82.73
2023-04-02T16:22:12.917Z,82.35
2023-04-02T16:24:39.443Z,82.69
2023-04-02T16:27:24.824Z,82.64
2023-04-02T16:29:55.166Z,83.29
2023-04-02T16:32:25.052Z,82.27
2023-04-02T16:35:32.584Z,82.05
2023-04-02T16:37:53.983Z,81.56
2023-04-02T16:40:35.672Z,82.30
2023-04-02T16:43:08.301Z,84.08
2023-04-02T16:45:53.416Z,83.60
2023-04-02T16:48:19.925Z,82.95
2023-04-02T16:51:05.281Z,81.95
2023-04-02T16:53:47.837Z,82.24
2023-04-02T16:56:21.093Z,81.63
2023-04-02T16:58:59.957Z,82.49
2023-04-02T17:01:29.232Z,79.72
2023-04-02T17:06:42.762Z,80.84
2023-04-02T17:09:09.340Z,81.59
2023-04-02T17:11:41.720Z,80.78
2023-04-02T17:14:13.131Z,82.13
2023-04-02T17:16:39.570Z,81.28
2023-04-02T17:19:08.997Z,80.42
2023-04-02T17:21:35.514Z,80.43
2023-04-02T17:24:08.093Z,79.12
2023-04-02T17:26:34.702Z,78.93
2023-04-02T17:29:01.745Z,79.55
2023-04-02T17:31:28.681Z,78.97
2023-04-02T17:33:55.205Z,79.95
2023-04-02T17:36:30.932Z,79.33
2023-04-02T17:39:00.474Z,79.00
2023-04-02T17:41:47.165Z,78.23
2023-04-02T17:44:46.125Z,79.75
2023-04-02T17:47:15.393Z,80.47
2023-04-02T17:49:52.868Z,80.74
2023-04-02T17:52:29.958Z,78.51
2023-04-02T17:55:02.570Z,80.45
2023-04-02T17:57:55.207Z,79.51
2023-04-02T18:00:21.738Z,78.95
2023-04-02T18:03:00.265Z,79.51
2023-04-02T18:05:53.350Z,80.26
2023-04-02T18:08:35.172Z,81.92
2023-04-02T18:11:14.219Z,81.00
2023-04-02T18:13:49.390Z,79.96
2023-04-02T18:16:42.051Z,80.33
2023-04-02T18:19:26.905Z,80.76
2023-04-02T18:21:56.047Z,81.53
2023-04-02T18:24:41.272Z,80.99
2023-04-02T18:27:26.730Z,79.77
2023-04-02T18:30:02.537Z,80.67
2023-04-02T18:32:47.125Z,82.38
2023-04-02T18:35:15.448Z,81.63
2023-04-02T18:37:51.147Z,82.11
2023-04-02T18:40:50.183Z,80.84
2023-04-02T18:43:16.628Z,81.91
2023-04-02T18:45:49.396Z,81.77
2023-04-02T18:48:26.858Z,81.45
2023-04-02T18:50:53.389Z,81.29
2023-04-02T18:53:21.853Z,81.65
2023-04-02T18:55:49.437Z,81.15
2023-04-02T18:58:17.846Z,80.38
2023-04-02T19:00:44.347Z,81.73
2023-04-02T19:03:10.835Z,81.04
2023-04-02T19:05:56.461Z,81.82
2023-04-02T19:08:39.485Z,82.92
2023-04-02T19:11:32.541Z,82.22
2023-04-02T19:13:59.777Z,81.57
2023-04-02T19:16:45.164Z,81.31
2023-04-02T19:19:17.129Z,81.45
2023-04-02T19:21:56.014Z,81.68
2023-04-02T19:24:26.173Z,80.52
2023-04-02T19:26:59.730Z,80.40
2023-04-02T19:29:30.691Z,80.50
2023-04-02T19:32:15.700Z,80.50
2023-04-02T19:34:43.141Z,80.40
2023-04-02T19:37:16.895Z,80.41
2023-04-02T19:40:02.262Z,79.95
2023-04-02T19:42:30.541Z,79.90
2023-04-02T19:44:56.964Z,79.27
2023-04-02T19:47:23.401Z,78.65
2023-04-02T19:49:50.044Z,80.15
2023-04-02T19:52:16.582Z,79.84
2023-04-02T19:54:42.935Z,80.33
2023-04-02T19:57:12.127Z,80.75
2023-04-02T19:59:38.674Z,80.22
2023-04-02T20:02:05.371Z,79.93
2023-04-02T20:04:31.971Z,78.97
2023-04-02T20:06:58.499Z,78.78
2023-04-02T20:09:24.943Z,80.92
2023-04-02T20:11:51.541Z,79.23
2023-04-02T20:14:17.982Z,79.92
2023-04-02T20:16:45.776Z,80.73
2023-04-02T20:19:12.591Z,80.58
2023-04-02T20:21:39.048Z,80.27
2023-04-02T20:24:06.128Z,79.49
2023-04-02T20:26:32.765Z,79.32
2023-04-02T20:28:59.236Z,80.79
2023-04-02T20:31:25.801Z,79.52
2023-04-02T20:33:58.687Z,78.28
2023-04-02T20:36:25.366Z,79.74
2023-04-02T20:38:51.897Z,79.82
2023-04-02T20:41:18.384Z,80.31
2023-04-02T20:43:44.891Z,80.22
2023-04-02T20:46:12.366Z,79.31
2023-04-02T20:48:39.250Z,78.88
2023-04-02T20:51:06.040Z,77.59
2023-04-02T20:53:32.993Z,76.71
2023-04-02T20:56:06.065Z,76.37
2023-04-02T20:58:32.777Z,76.54
2023-04-02T21:01:06.588Z,75.92
2023-04-02T21:03:33.107Z,76.73
2023-04-02T21:05:59.667Z,76.36
2023-04-02T21:08:26.260Z,75.33
2023-04-02T21:10:52.674Z,75.36
2023-04-02T21:13:19.245Z,76.47
2023-04-02T21:15:45.824Z,76.02
2023-04-02T21:18:12.353Z,76.00
2023-04-02T21:20:39.016Z,76.78
2023-04-02T21:23:05.547Z,75.70
2023-04-02T21:25:31.944Z,77.08
2023-04-02T21:27:58.322Z,77.16
2023-04-02T21:30:24.755Z,76.67
2023-04-02T21:32:51.244Z,76.82
2023-04-02T21:35:17.738Z,77.33
2023-04-02T21:37:45.397Z,77.10
2023-04-02T21:40:11.868Z,77.33
2023-04-02T21:42:38.250Z,77.40
2023-04-02T21:45:04.931Z,77.01
2023-04-02T21:47:31.449Z,76.63
2023-04-02T21:49:57.934Z,76.73
2023-04-02T21:52:24.497Z,76.74
2023-04-02T21:54:50.969Z,77.16
2023-04-02T21:57:19.052Z,77.17
2023-04-02T21:59:45.748Z,78.33
2023-04-02T22:02:12.234Z,77.39
2023-04-02T22:04:38.643Z,78.40
2023-04-02T22:07:05.098Z,78.17
2023-04-02T22:09:31.532Z,79.00
2023-04-02T22:11:58.100Z,78.58
2023-04-02T22:14:24.612Z,77.87
2023-04-02T22:16:51.122Z,77.55
2023-04-02T22:19:17.694Z,78.00
2023-04-02T22:21:44.341Z,78.82
2023-04-02T22:24:14.346Z,79.20
2023-04-02T22:26:40.927Z,77.67
2023-04-02T22:29:07.584Z,78.42
2023-04-02T22:31:34.158Z,79.46
2023-04-02T22:34:00.696Z,79.47
2023-04-02T22:36:27.329Z,81.15
2023-04-02T22:38:53.840Z,80.47
2023-04-02T22:41:23.320Z,80.67
2023-04-02T22:43:49.878Z,82.05
2023-04-02T22:46:17.081Z,80.68
2023-04-02T22:48:43.697Z,79.81
2023-04-02T22:51:10.575Z,80.35
2023-04-02T22:53:37.055Z,80.32
2023-04-02T22:56:10.837Z,81.46
2023-04-02T22:58:37.420Z,81.86
2023-04-02T23:01:07.583Z,81.92
2023-04-02T23:03:34.156Z,82.24
2023-04-02T23:06:00.969Z,82.08
2023-04-02T23:08:27.449Z,81.17
2023-04-02T23:10:59.991Z,81.52
2023-04-02T23:13:26.384Z,81.85
2023-04-02T23:15:52.856Z,80.99
2023-04-02T23:18:19.386Z,81.71
2023-04-02T23:20:45.874Z,82.35
2023-04-02T23:23:12.342Z,81.97
2023-04-02T23:25:38.889Z,82.01
2023-04-02T23:28:05.305Z,82.12
2023-04-02T23:30:31.691Z,82.43
2023-04-02T23:32:58.134Z,82.15
2023-04-02T23:35:24.723Z,82.47
2023-04-02T23:37:51.186Z,82.52
2023-04-02T23:40:17.813Z,81.63
2023-04-02T23:42:44.205Z,80.57
2023-04-02T23:45:10.750Z,81.14
2023-04-02T23:47:37.389Z,82.54
2023-04-02T23:50:04.007Z,83.12
2023-04-02T23:52:30.520Z,83.40
2023-04-02T23:54:57.066Z,82.98
2023-04-02T23:57:23.505Z,81.47
2023-04-02T23:59:50.002Z,81.48
